CPA403 RKSS-VHHX
Flight info
| Callsign | CPA403 |
|---|---|
| Flight time | 2h 59m |
| Altitude | 34000 |
| Route | BULTI2U BULTI Y711 MUGUS Y742 SALMI Q11 DRAKE A1 MAGOG |
| Aircraft | L101/H-SDFGHIRWXY/S |
Departure
| Time | 2026-05-06 05:00 |
|---|---|
| Airport | Gimpo International Airport (RKSS) |
Arrival
| Time | 2026-05-06 07:59 |
|---|---|
| Airport | Hong Kong International Airport Kai Tak (VHHX) |
| Time | Latitude | Longitude | Altitude | Speed | Heading |
|---|---|---|---|---|---|
| 2026-05-06 04:05 | 37.55887 | 126.80155 | 62 ft | 0 kts | 44° |
| 2026-05-06 04:45 | 37.55876 | 126.80141 | 63 ft | 3 kts | 44° |
| 2026-05-06 04:45 | 37.55856 | 126.80117 | 62 ft | 4 kts | 44° |
| 2026-05-06 04:45 | 37.55836 | 126.80096 | 64 ft | 4 kts | 30° |
| 2026-05-06 04:45 | 37.55812 | 126.80084 | 62 ft | 4 kts | 358° |
| 2026-05-06 04:46 | 37.55791 | 126.80093 | 61 ft | 2 kts | 315° |
| 2026-05-06 04:46 | 37.55790 | 126.80093 | 62 ft | 0 kts | 315° |
| 2026-05-06 04:50 | 37.55791 | 126.80093 | 62 ft | 0 kts | 315° |
| 2026-05-06 04:50 | 37.55800 | 126.80082 | 61 ft | 3 kts | 315° |
| 2026-05-06 04:51 | 37.55824 | 126.80051 | 64 ft | 6 kts | 315° |
| 2026-05-06 04:51 | 37.55862 | 126.80002 | 63 ft | 9 kts | 315° |
| 2026-05-06 04:51 | 37.55899 | 126.79929 | 66 ft | 11 kts | 284° |
| 2026-05-06 04:51 | 37.55911 | 126.79827 | 70 ft | 13 kts | 278° |
| 2026-05-06 04:52 | 37.55926 | 126.79712 | 66 ft | 13 kts | 279° |
| 2026-05-06 04:52 | 37.55941 | 126.79592 | 69 ft | 15 kts | 279° |
| 2026-05-06 04:52 | 37.55992 | 126.79480 | 63 ft | 16 kts | 315° |
| 2026-05-06 04:52 | 37.56074 | 126.79376 | 61 ft | 18 kts | 315° |
| 2026-05-06 04:53 | 37.56165 | 126.79259 | 69 ft | 20 kts | 314° |
| 2026-05-06 04:53 | 37.56267 | 126.79129 | 66 ft | 22 kts | 314° |
| 2026-05-06 04:53 | 37.56377 | 126.78993 | 63 ft | 23 kts | 318° |
| 2026-05-06 04:53 | 37.56490 | 126.78852 | 61 ft | 23 kts | 314° |
| 2026-05-06 04:54 | 37.56607 | 126.78705 | 63 ft | 24 kts | 315° |
| 2026-05-06 04:54 | 37.56729 | 126.78550 | 66 ft | 26 kts | 314° |
| 2026-05-06 04:54 | 37.56857 | 126.78384 | 62 ft | 27 kts | 316° |
| 2026-05-06 04:54 | 37.56994 | 126.78217 | 60 ft | 28 kts | 315° |
| 2026-05-06 04:55 | 37.57135 | 126.78041 | 60 ft | 27 kts | 314° |
| 2026-05-06 04:55 | 37.57200 | 126.77956 | 63 ft | 10 kts | 314° |
| 2026-05-06 04:55 | 37.57203 | 126.77885 | 67 ft | 9 kts | 227° |
| 2026-05-06 04:55 | 37.57131 | 126.77859 | 62 ft | 14 kts | 179° |
| 2026-05-06 04:56 | 37.57051 | 126.77860 | 58 ft | 8 kts | 169° |
| 2026-05-06 04:56 | 37.57027 | 126.77880 | 57 ft | 0 kts | 136° |
| 2026-05-06 04:59 | 37.56868 | 126.78078 | 56 ft | 72 kts | 135° |
| 2026-05-06 04:59 | 37.56335 | 126.78750 | 63 ft | 143 kts | 135° |
| 2026-05-06 04:59 | 37.55542 | 126.79762 | 402 ft | 177 kts | 138° |
| 2026-05-06 05:00 | 37.54697 | 126.80882 | 1361 ft | 174 kts | 138° |
| 2026-05-06 05:00 | 37.53848 | 126.82060 | 1714 ft | 189 kts | 137° |
| 2026-05-06 05:00 | 37.52894 | 126.83358 | 1870 ft | 220 kts | 137° |
| 2026-05-06 05:00 | 37.51753 | 126.84864 | 2161 ft | 248 kts | 139° |
| 2026-05-06 05:01 | 37.50421 | 126.86254 | 2959 ft | 246 kts | 153° |
| 2026-05-06 05:01 | 37.50244 | 126.86389 | 3084 ft | 245 kts | 155° |
| 2026-05-06 05:01 | 37.48676 | 126.87313 | 3542 ft | 250 kts | 164° |
| 2026-05-06 05:01 | 37.47047 | 126.88023 | 3795 ft | 248 kts | 166° |
| 2026-05-06 05:02 | 37.45401 | 126.88697 | 4013 ft | 249 kts | 168° |
| 2026-05-06 05:02 | 37.43732 | 126.89299 | 4257 ft | 251 kts | 169° |
| 2026-05-06 05:02 | 37.42042 | 126.89892 | 4500 ft | 254 kts | 168° |
| 2026-05-06 05:02 | 37.40336 | 126.90527 | 4739 ft | 257 kts | 167° |
| 2026-05-06 05:03 | 37.38650 | 126.91296 | 4956 ft | 262 kts | 159° |
| 2026-05-06 05:03 | 37.37058 | 126.92425 | 5126 ft | 265 kts | 150° |
| 2026-05-06 05:03 | 37.35519 | 126.93729 | 5312 ft | 267 kts | 149° |
| 2026-05-06 05:03 | 37.33959 | 126.94990 | 5483 ft | 268 kts | 152° |
| 2026-05-06 05:04 | 37.32355 | 126.96213 | 5662 ft | 269 kts | 153° |
| 2026-05-06 05:04 | 37.30763 | 126.97438 | 5827 ft | 270 kts | 152° |
| 2026-05-06 05:04 | 37.29100 | 126.98775 | 6087 ft | 295 kts | 150° |
| 2026-05-06 05:04 | 37.27367 | 127.00225 | 6478 ft | 312 kts | 149° |
| 2026-05-06 05:05 | 37.25373 | 127.01497 | 6879 ft | 326 kts | 166° |
| 2026-05-06 05:05 | 37.23086 | 127.01803 | 7066 ft | 340 kts | 187° |
| 2026-05-06 05:05 | 37.20805 | 127.01297 | 7181 ft | 319 kts | 195° |
| 2026-05-06 05:05 | 37.18728 | 127.00721 | 7211 ft | 293 kts | 194° |
| 2026-05-06 05:06 | 37.16849 | 127.00315 | 7823 ft | 277 kts | 192° |
| 2026-05-06 05:06 | 37.14942 | 126.99924 | 8110 ft | 276 kts | 192° |
| 2026-05-06 05:06 | 37.13045 | 126.99534 | 8488 ft | 275 kts | 192° |
| 2026-05-06 05:06 | 37.11157 | 126.99081 | 8990 ft | 276 kts | 197° |
| 2026-05-06 05:07 | 37.09304 | 126.98384 | 9487 ft | 280 kts | 200° |
| 2026-05-06 05:07 | 37.07449 | 126.97586 | 9955 ft | 294 kts | 201° |
| 2026-05-06 05:07 | 37.05466 | 126.96735 | 10402 ft | 308 kts | 200° |
| 2026-05-06 05:07 | 37.03367 | 126.95872 | 10521 ft | 330 kts | 199° |
| 2026-05-06 05:08 | 37.01097 | 126.94981 | 10619 ft | 351 kts | 199° |
| 2026-05-06 05:08 | 36.98700 | 126.94068 | 10738 ft | 368 kts | 198° |
| 2026-05-06 05:08 | 36.96201 | 126.93126 | 11006 ft | 378 kts | 198° |
| 2026-05-06 05:08 | 36.93708 | 126.92156 | 11718 ft | 373 kts | 200° |
| 2026-05-06 05:09 | 36.91251 | 126.91092 | 12487 ft | 371 kts | 201° |
| 2026-05-06 05:09 | 36.88816 | 126.89968 | 12822 ft | 381 kts | 202° |
| 2026-05-06 05:09 | 36.86292 | 126.88790 | 13202 ft | 388 kts | 202° |
| 2026-05-06 05:09 | 36.83780 | 126.87639 | 13943 ft | 385 kts | 201° |
| 2026-05-06 05:10 | 36.81238 | 126.86500 | 14401 ft | 390 kts | 201° |
| 2026-05-06 05:10 | 36.78709 | 126.85357 | 14730 ft | 398 kts | 202° |
| 2026-05-06 05:10 | 36.76110 | 126.84177 | 15302 ft | 398 kts | 201° |
| 2026-05-06 05:10 | 36.73449 | 126.83225 | 15894 ft | 387 kts | 192° |
| 2026-05-06 05:11 | 36.70838 | 126.82998 | 15999 ft | 370 kts | 182° |
| 2026-05-06 05:11 | 36.68279 | 126.83111 | 16003 ft | 365 kts | 181° |
| 2026-05-06 05:11 | 36.65734 | 126.83161 | 16132 ft | 374 kts | 183° |
| 2026-05-06 05:11 | 36.63066 | 126.83107 | 16246 ft | 391 kts | 184° |
| 2026-05-06 05:12 | 36.60365 | 126.83055 | 16370 ft | 406 kts | 183° |
| 2026-05-06 05:12 | 36.57448 | 126.83079 | 16602 ft | 418 kts | 181° |
| 2026-05-06 05:12 | 36.54529 | 126.83183 | 17138 ft | 420 kts | 180° |
| 2026-05-06 05:12 | 36.51644 | 126.83315 | 17872 ft | 418 kts | 181° |
| 2026-05-06 05:13 | 36.48725 | 126.83436 | 18372 ft | 424 kts | 181° |
| 2026-05-06 05:13 | 36.45742 | 126.83537 | 18690 ft | 431 kts | 181° |
| 2026-05-06 05:13 | 36.42888 | 126.83630 | 19267 ft | 431 kts | 181° |
| 2026-05-06 05:13 | 36.39799 | 126.83710 | 19816 ft | 433 kts | 183° |
| 2026-05-06 05:14 | 36.36761 | 126.83558 | 20258 ft | 436 kts | 188° |
| 2026-05-06 05:14 | 36.33774 | 126.83204 | 20720 ft | 440 kts | 189° |
| 2026-05-06 05:14 | 36.30698 | 126.82806 | 21245 ft | 443 kts | 189° |
| 2026-05-06 05:14 | 36.27630 | 126.82467 | 21761 ft | 448 kts | 188° |
| 2026-05-06 05:15 | 36.24483 | 126.82164 | 22271 ft | 453 kts | 188° |
| 2026-05-06 05:15 | 36.21369 | 126.81861 | 22826 ft | 457 kts | 188° |
| 2026-05-06 05:15 | 36.18144 | 126.81522 | 23379 ft | 461 kts | 189° |
| 2026-05-06 05:15 | 36.14985 | 126.81102 | 23829 ft | 466 kts | 190° |
| 2026-05-06 05:16 | 36.11758 | 126.80655 | 24285 ft | 470 kts | 189° |
| 2026-05-06 05:16 | 36.08850 | 126.80343 | 24670 ft | 474 kts | 188° |
| 2026-05-06 05:16 | 36.05571 | 126.80070 | 25188 ft | 478 kts | 187° |
| 2026-05-06 05:16 | 36.02152 | 126.79774 | 25492 ft | 486 kts | 188° |
| 2026-05-06 05:17 | 35.98782 | 126.79426 | 25595 ft | 498 kts | 188° |
| 2026-05-06 05:17 | 35.95319 | 126.79032 | 25678 ft | 509 kts | 188° |
| 2026-05-06 05:17 | 35.91735 | 126.78624 | 25831 ft | 518 kts | 188° |
| 2026-05-06 05:17 | 35.88128 | 126.78227 | 26163 ft | 523 kts | 188° |
| 2026-05-06 05:18 | 35.84501 | 126.77842 | 26741 ft | 521 kts | 188° |
| 2026-05-06 05:18 | 35.80907 | 126.77470 | 27474 ft | 517 kts | 188° |
| 2026-05-06 05:18 | 35.77303 | 126.77093 | 27919 ft | 520 kts | 188° |
| 2026-05-06 05:18 | 35.73801 | 126.76716 | 28381 ft | 521 kts | 188° |
| 2026-05-06 05:19 | 35.70195 | 126.76322 | 28954 ft | 522 kts | 188° |
| 2026-05-06 05:19 | 35.66555 | 126.75925 | 29528 ft | 521 kts | 188° |
| 2026-05-06 05:19 | 35.63038 | 126.75547 | 30062 ft | 522 kts | 188° |
| 2026-05-06 05:19 | 35.59422 | 126.75159 | 30554 ft | 523 kts | 188° |
| 2026-05-06 05:20 | 35.55771 | 126.74767 | 30938 ft | 525 kts | 188° |
| 2026-05-06 05:20 | 35.52187 | 126.74380 | 31440 ft | 524 kts | 188° |
| 2026-05-06 05:20 | 35.48550 | 126.73984 | 31921 ft | 524 kts | 188° |
| 2026-05-06 05:20 | 35.44919 | 126.73594 | 32407 ft | 525 kts | 188° |
| 2026-05-06 05:21 | 35.41279 | 126.73206 | 32866 ft | 525 kts | 189° |
| 2026-05-06 05:21 | 35.37623 | 126.72818 | 33326 ft | 526 kts | 188° |
| 2026-05-06 05:21 | 35.33983 | 126.72433 | 33767 ft | 527 kts | 189° |
| 2026-05-06 05:21 | 35.30331 | 126.72044 | 33989 ft | 530 kts | 189° |
| 2026-05-06 05:22 | 35.26658 | 126.71650 | 34040 ft | 530 kts | 189° |
| 2026-05-06 05:22 | 35.19287 | 126.70863 | 34041 ft | 529 kts | 188° |
| 2026-05-06 05:23 | 35.11990 | 126.70087 | 34062 ft | 530 kts | 188° |
| 2026-05-06 05:23 | 35.00981 | 126.68922 | 34069 ft | 530 kts | 188° |
| 2026-05-06 05:24 | 34.94864 | 126.68282 | 34069 ft | 530 kts | 188° |
| 2026-05-06 05:24 | 34.87513 | 126.67501 | 34067 ft | 529 kts | 188° |
| 2026-05-06 05:25 | 34.80166 | 126.66724 | 34032 ft | 529 kts | 188° |
| 2026-05-06 05:25 | 34.72865 | 126.65957 | 34065 ft | 526 kts | 188° |
| 2026-05-06 05:26 | 34.65556 | 126.65186 | 34071 ft | 525 kts | 188° |
| 2026-05-06 05:26 | 34.58327 | 126.64423 | 34065 ft | 525 kts | 188° |
| 2026-05-06 05:27 | 34.51042 | 126.63662 | 34074 ft | 526 kts | 188° |
| 2026-05-06 05:27 | 34.43745 | 126.62892 | 34078 ft | 526 kts | 188° |
| 2026-05-06 05:28 | 34.36449 | 126.62130 | 34073 ft | 526 kts | 188° |
| 2026-05-06 05:28 | 34.29147 | 126.61372 | 34077 ft | 526 kts | 188° |
| 2026-05-06 05:29 | 34.21841 | 126.60609 | 34073 ft | 527 kts | 188° |
| 2026-05-06 05:29 | 34.14544 | 126.59849 | 34073 ft | 527 kts | 188° |
| 2026-05-06 05:30 | 34.07273 | 126.59097 | 34074 ft | 527 kts | 188° |
| 2026-05-06 05:30 | 33.99927 | 126.58337 | 34064 ft | 527 kts | 188° |
| 2026-05-06 05:31 | 33.92650 | 126.57580 | 34074 ft | 527 kts | 187° |
| 2026-05-06 05:31 | 33.85379 | 126.56607 | 34047 ft | 523 kts | 197° |
| 2026-05-06 05:32 | 33.78542 | 126.53834 | 34080 ft | 519 kts | 204° |
| 2026-05-06 05:32 | 33.71663 | 126.51049 | 34089 ft | 521 kts | 201° |
| 2026-05-06 05:33 | 33.64819 | 126.48267 | 34093 ft | 519 kts | 203° |
| 2026-05-06 05:33 | 33.58050 | 126.45340 | 34091 ft | 519 kts | 203° |
| 2026-05-06 05:34 | 33.51264 | 126.42419 | 34093 ft | 520 kts | 203° |
| 2026-05-06 05:34 | 33.44451 | 126.39491 | 34092 ft | 520 kts | 203° |
| 2026-05-06 05:35 | 33.37635 | 126.36563 | 34085 ft | 520 kts | 203° |
| 2026-05-06 05:35 | 33.30812 | 126.33653 | 34079 ft | 521 kts | 203° |
| 2026-05-06 05:36 | 33.23980 | 126.30732 | 34062 ft | 521 kts | 203° |
| 2026-05-06 05:36 | 33.17156 | 126.27798 | 34071 ft | 521 kts | 203° |
| 2026-05-06 05:37 | 33.10365 | 126.24898 | 34073 ft | 522 kts | 202° |
| 2026-05-06 05:37 | 33.03487 | 126.21971 | 34067 ft | 520 kts | 203° |
| 2026-05-06 05:38 | 32.96700 | 126.19051 | 34072 ft | 519 kts | 203° |
| 2026-05-06 05:38 | 32.89939 | 126.16159 | 34070 ft | 519 kts | 203° |
| 2026-05-06 05:39 | 32.83138 | 126.13238 | 34068 ft | 520 kts | 203° |
| 2026-05-06 05:39 | 32.76324 | 126.10315 | 34069 ft | 521 kts | 203° |
| 2026-05-06 05:40 | 32.69498 | 126.07404 | 34071 ft | 521 kts | 202° |
| 2026-05-06 05:40 | 32.62679 | 126.04505 | 34068 ft | 521 kts | 202° |
| 2026-05-06 05:41 | 32.55844 | 126.01580 | 34068 ft | 522 kts | 203° |
| 2026-05-06 05:41 | 32.49059 | 125.98661 | 34069 ft | 521 kts | 204° |
| 2026-05-06 05:42 | 32.42255 | 125.95655 | 34061 ft | 523 kts | 201° |
| 2026-05-06 05:42 | 32.35370 | 125.92880 | 34080 ft | 523 kts | 201° |
| 2026-05-06 05:43 | 32.28488 | 125.90006 | 34054 ft | 523 kts | 202° |
| 2026-05-06 05:43 | 32.21631 | 125.87094 | 34060 ft | 524 kts | 202° |
| 2026-05-06 05:44 | 32.14757 | 125.84205 | 34068 ft | 525 kts | 202° |
| 2026-05-06 05:44 | 32.07868 | 125.81323 | 34061 ft | 525 kts | 201° |
| 2026-05-06 05:45 | 32.00996 | 125.78439 | 34062 ft | 524 kts | 202° |
| 2026-05-06 05:45 | 31.94174 | 125.75569 | 34063 ft | 524 kts | 201° |
| 2026-05-06 05:46 | 31.87301 | 125.72695 | 34055 ft | 524 kts | 201° |
| 2026-05-06 05:46 | 31.80425 | 125.69810 | 34065 ft | 524 kts | 202° |
| 2026-05-06 05:47 | 31.73567 | 125.66913 | 34062 ft | 524 kts | 202° |
| 2026-05-06 05:47 | 31.66689 | 125.64042 | 34056 ft | 524 kts | 201° |
| 2026-05-06 05:48 | 31.59819 | 125.61178 | 34059 ft | 523 kts | 201° |
| 2026-05-06 05:48 | 31.53003 | 125.58325 | 34058 ft | 523 kts | 201° |
| 2026-05-06 05:49 | 31.46135 | 125.55444 | 34057 ft | 523 kts | 201° |
| 2026-05-06 05:49 | 31.39286 | 125.52583 | 34060 ft | 523 kts | 201° |
| 2026-05-06 05:50 | 31.32420 | 125.49711 | 34054 ft | 523 kts | 201° |
| 2026-05-06 05:50 | 31.25555 | 125.46846 | 34054 ft | 523 kts | 201° |
| 2026-05-06 05:51 | 31.18697 | 125.43989 | 34053 ft | 523 kts | 201° |
| 2026-05-06 05:51 | 31.11844 | 125.41136 | 34056 ft | 523 kts | 201° |
| 2026-05-06 05:52 | 31.04985 | 125.38275 | 34053 ft | 523 kts | 201° |
| 2026-05-06 05:52 | 30.98173 | 125.35442 | 34054 ft | 523 kts | 201° |
| 2026-05-06 05:53 | 30.91303 | 125.32613 | 34054 ft | 523 kts | 201° |
| 2026-05-06 05:53 | 30.84444 | 125.29765 | 34050 ft | 523 kts | 201° |
| 2026-05-06 05:54 | 30.77626 | 125.26949 | 34047 ft | 523 kts | 201° |
| 2026-05-06 05:54 | 30.70732 | 125.24103 | 34048 ft | 523 kts | 201° |
| 2026-05-06 05:55 | 30.63911 | 125.21297 | 34049 ft | 523 kts | 201° |
| 2026-05-06 05:55 | 30.57003 | 125.18471 | 34049 ft | 523 kts | 201° |
| 2026-05-06 05:56 | 30.50177 | 125.15657 | 34053 ft | 523 kts | 201° |
| 2026-05-06 05:56 | 30.43310 | 125.12845 | 34055 ft | 523 kts | 201° |
| 2026-05-06 05:57 | 30.36446 | 125.10056 | 34048 ft | 523 kts | 201° |
| 2026-05-06 05:57 | 30.29570 | 125.07271 | 34051 ft | 523 kts | 201° |
| 2026-05-06 05:58 | 30.22727 | 125.04478 | 34048 ft | 521 kts | 201° |
| 2026-05-06 05:58 | 30.15889 | 125.01686 | 34049 ft | 520 kts | 201° |
| 2026-05-06 05:59 | 30.09069 | 124.98909 | 34033 ft | 520 kts | 202° |
| 2026-05-06 05:59 | 30.02214 | 124.96110 | 34043 ft | 523 kts | 201° |
| 2026-05-06 06:00 | 29.95427 | 124.93257 | 34049 ft | 523 kts | 202° |
| 2026-05-06 06:00 | 29.88558 | 124.90320 | 34046 ft | 523 kts | 202° |
| 2026-05-06 06:01 | 29.81780 | 124.87437 | 34039 ft | 520 kts | 202° |
| 2026-05-06 06:01 | 29.74995 | 124.84547 | 34042 ft | 518 kts | 202° |
| 2026-05-06 06:02 | 29.68231 | 124.81669 | 34038 ft | 518 kts | 202° |
| 2026-05-06 06:02 | 29.61469 | 124.78789 | 34033 ft | 517 kts | 202° |
| 2026-05-06 06:03 | 29.54730 | 124.75936 | 34039 ft | 516 kts | 202° |
| 2026-05-06 06:03 | 29.48016 | 124.73096 | 34020 ft | 517 kts | 202° |
| 2026-05-06 06:04 | 29.41246 | 124.70217 | 34039 ft | 520 kts | 202° |
| 2026-05-06 06:04 | 29.34457 | 124.67353 | 34036 ft | 519 kts | 202° |
| 2026-05-06 06:05 | 29.27678 | 124.64490 | 34029 ft | 519 kts | 202° |
| 2026-05-06 06:05 | 29.20892 | 124.61627 | 34029 ft | 519 kts | 202° |
| 2026-05-06 06:06 | 29.14183 | 124.58799 | 34029 ft | 518 kts | 202° |
| 2026-05-06 06:06 | 29.07370 | 124.55938 | 34032 ft | 518 kts | 202° |
| 2026-05-06 06:07 | 29.00656 | 124.53124 | 34030 ft | 518 kts | 202° |
| 2026-05-06 06:07 | 28.94248 | 124.49477 | 34025 ft | 510 kts | 218° |
| 2026-05-06 06:08 | 28.88414 | 124.44834 | 34030 ft | 514 kts | 216° |
| 2026-05-06 06:08 | 28.82384 | 124.40395 | 34030 ft | 515 kts | 217° |
| 2026-05-06 06:09 | 28.76481 | 124.35764 | 34027 ft | 514 kts | 219° |
| 2026-05-06 06:09 | 28.70668 | 124.31107 | 34030 ft | 514 kts | 219° |
| 2026-05-06 06:10 | 28.64812 | 124.26429 | 34026 ft | 514 kts | 219° |
| 2026-05-06 06:10 | 28.58958 | 124.21755 | 34026 ft | 514 kts | 219° |
| 2026-05-06 06:11 | 28.53101 | 124.17075 | 34022 ft | 514 kts | 219° |
| 2026-05-06 06:11 | 28.47239 | 124.12408 | 34024 ft | 514 kts | 219° |
| 2026-05-06 06:12 | 28.41391 | 124.07745 | 34012 ft | 514 kts | 219° |
| 2026-05-06 06:12 | 28.35518 | 124.03077 | 34022 ft | 514 kts | 219° |
| 2026-05-06 06:13 | 28.29236 | 123.99105 | 34009 ft | 521 kts | 206° |
| 2026-05-06 06:13 | 28.23656 | 123.96489 | 34023 ft | 522 kts | 207° |
| 2026-05-06 06:14 | 28.15955 | 123.92603 | 34013 ft | 521 kts | 207° |
| 2026-05-06 06:14 | 28.10373 | 123.89871 | 34021 ft | 521 kts | 207° |
| 2026-05-06 06:15 | 28.03682 | 123.86677 | 34012 ft | 522 kts | 207° |
| 2026-05-06 06:15 | 27.97033 | 123.83497 | 34012 ft | 522 kts | 207° |
| 2026-05-06 06:16 | 27.90334 | 123.80289 | 34010 ft | 522 kts | 207° |
| 2026-05-06 06:16 | 27.83643 | 123.77098 | 34010 ft | 522 kts | 207° |
| 2026-05-06 06:17 | 27.76954 | 123.73903 | 34006 ft | 522 kts | 207° |
| 2026-05-06 06:17 | 27.70226 | 123.70726 | 34005 ft | 523 kts | 207° |
| 2026-05-06 06:18 | 27.63575 | 123.67469 | 33976 ft | 519 kts | 213° |
| 2026-05-06 06:18 | 27.57675 | 123.62965 | 34020 ft | 510 kts | 221° |
| 2026-05-06 06:19 | 27.51864 | 123.58405 | 34008 ft | 513 kts | 219° |
| 2026-05-06 06:19 | 27.45998 | 123.53846 | 34005 ft | 512 kts | 221° |
| 2026-05-06 06:20 | 27.40217 | 123.49194 | 34004 ft | 512 kts | 221° |
| 2026-05-06 06:20 | 27.34424 | 123.44535 | 34001 ft | 512 kts | 221° |
| 2026-05-06 06:21 | 27.28636 | 123.39876 | 34000 ft | 512 kts | 221° |
| 2026-05-06 06:21 | 27.22837 | 123.35194 | 33999 ft | 512 kts | 221° |
| 2026-05-06 06:22 | 27.17046 | 123.30523 | 33996 ft | 512 kts | 221° |
| 2026-05-06 06:22 | 27.11262 | 123.25877 | 33995 ft | 512 kts | 221° |
| 2026-05-06 06:23 | 27.05459 | 123.21215 | 33991 ft | 512 kts | 221° |
| 2026-05-06 06:23 | 26.99702 | 123.16600 | 33991 ft | 512 kts | 221° |
| 2026-05-06 06:24 | 26.93908 | 123.11952 | 33988 ft | 510 kts | 221° |
| 2026-05-06 06:24 | 26.88138 | 123.07338 | 33992 ft | 510 kts | 221° |
| 2026-05-06 06:25 | 26.82362 | 123.02716 | 33988 ft | 510 kts | 221° |
| 2026-05-06 06:26 | 26.73765 | 122.95731 | 33988 ft | 510 kts | 220° |
| 2026-05-06 06:26 | 26.67905 | 122.91238 | 33991 ft | 511 kts | 221° |
| 2026-05-06 06:27 | 26.62097 | 122.86666 | 33978 ft | 509 kts | 221° |
| 2026-05-06 06:27 | 26.56321 | 122.82102 | 33987 ft | 508 kts | 221° |
| 2026-05-06 06:28 | 26.50556 | 122.77537 | 33977 ft | 507 kts | 221° |
| 2026-05-06 06:28 | 26.44839 | 122.73003 | 33983 ft | 507 kts | 221° |
| 2026-05-06 06:29 | 26.39045 | 122.68423 | 33983 ft | 508 kts | 221° |
| 2026-05-06 06:29 | 26.33293 | 122.63862 | 33984 ft | 507 kts | 221° |
| 2026-05-06 06:30 | 26.27564 | 122.59341 | 33972 ft | 506 kts | 221° |
| 2026-05-06 06:30 | 26.21812 | 122.54821 | 33981 ft | 505 kts | 221° |
| 2026-05-06 06:31 | 26.16099 | 122.50287 | 33981 ft | 505 kts | 221° |
| 2026-05-06 06:31 | 26.10345 | 122.45799 | 33974 ft | 505 kts | 221° |
| 2026-05-06 06:32 | 26.04572 | 122.41323 | 33973 ft | 505 kts | 221° |
| 2026-05-06 06:32 | 25.98832 | 122.36812 | 33976 ft | 505 kts | 221° |
| 2026-05-06 06:33 | 25.93095 | 122.32315 | 33973 ft | 503 kts | 221° |
| 2026-05-06 06:33 | 25.87421 | 122.27874 | 33978 ft | 502 kts | 221° |
| 2026-05-06 06:34 | 25.81672 | 122.23385 | 33967 ft | 501 kts | 221° |
| 2026-05-06 06:34 | 25.76014 | 122.18972 | 33969 ft | 501 kts | 221° |
| 2026-05-06 06:35 | 25.70280 | 122.14489 | 33972 ft | 501 kts | 221° |
| 2026-05-06 06:35 | 25.64617 | 122.10073 | 33973 ft | 500 kts | 222° |
| 2026-05-06 06:36 | 25.59537 | 122.05046 | 33966 ft | 487 kts | 234° |
| 2026-05-06 06:36 | 25.55128 | 121.99355 | 33972 ft | 486 kts | 235° |
| 2026-05-06 06:37 | 25.50647 | 121.93740 | 33966 ft | 487 kts | 234° |
| 2026-05-06 06:37 | 25.46189 | 121.88158 | 33966 ft | 486 kts | 235° |
| 2026-05-06 06:38 | 25.41757 | 121.82528 | 33961 ft | 485 kts | 235° |
| 2026-05-06 06:38 | 25.37322 | 121.76910 | 33962 ft | 484 kts | 234° |
| 2026-05-06 06:39 | 25.32888 | 121.71306 | 33959 ft | 483 kts | 234° |
| 2026-05-06 06:39 | 25.28470 | 121.65701 | 33962 ft | 483 kts | 234° |
| 2026-05-06 06:40 | 25.24052 | 121.60114 | 33957 ft | 483 kts | 234° |
| 2026-05-06 06:40 | 25.19618 | 121.54532 | 33946 ft | 483 kts | 234° |
| 2026-05-06 06:41 | 25.15235 | 121.48914 | 33952 ft | 481 kts | 235° |
| 2026-05-06 06:41 | 25.10913 | 121.43324 | 33957 ft | 481 kts | 235° |
| 2026-05-06 06:42 | 25.06581 | 121.37719 | 33981 ft | 481 kts | 235° |
| 2026-05-06 06:42 | 25.02204 | 121.32057 | 33970 ft | 481 kts | 235° |
| 2026-05-06 06:43 | 24.97902 | 121.26495 | 33982 ft | 480 kts | 235° |
| 2026-05-06 06:43 | 24.93569 | 121.20896 | 33983 ft | 479 kts | 234° |
| 2026-05-06 06:44 | 24.89241 | 121.15302 | 33976 ft | 479 kts | 234° |
| 2026-05-06 06:44 | 24.84916 | 121.09719 | 33981 ft | 478 kts | 234° |
| 2026-05-06 06:45 | 24.80576 | 121.04151 | 33972 ft | 479 kts | 234° |
| 2026-05-06 06:45 | 24.76239 | 120.98595 | 33983 ft | 478 kts | 234° |
| 2026-05-06 06:46 | 24.71938 | 120.93069 | 33973 ft | 478 kts | 234° |
| 2026-05-06 06:46 | 24.67588 | 120.87485 | 33974 ft | 477 kts | 234° |
| 2026-05-06 06:47 | 24.63293 | 120.81970 | 33981 ft | 477 kts | 234° |
| 2026-05-06 06:47 | 24.58976 | 120.76438 | 33982 ft | 477 kts | 234° |
| 2026-05-06 06:48 | 24.54543 | 120.70988 | 33971 ft | 478 kts | 231° |
| 2026-05-06 06:48 | 24.49910 | 120.65753 | 33970 ft | 478 kts | 231° |
| 2026-05-06 06:49 | 24.45342 | 120.60527 | 33961 ft | 478 kts | 231° |
| 2026-05-06 06:49 | 24.40730 | 120.55246 | 33960 ft | 478 kts | 231° |
| 2026-05-06 06:50 | 24.36118 | 120.49978 | 33957 ft | 478 kts | 231° |
| 2026-05-06 06:50 | 24.31506 | 120.44731 | 33960 ft | 478 kts | 231° |
| 2026-05-06 06:51 | 24.26891 | 120.39482 | 33958 ft | 478 kts | 230° |
| 2026-05-06 06:51 | 24.22263 | 120.34246 | 33958 ft | 477 kts | 230° |
| 2026-05-06 06:52 | 24.17729 | 120.28932 | 33938 ft | 477 kts | 230° |
| 2026-05-06 06:52 | 24.13100 | 120.23776 | 33949 ft | 477 kts | 230° |
| 2026-05-06 06:53 | 24.08435 | 120.18553 | 33944 ft | 476 kts | 230° |
| 2026-05-06 06:53 | 24.03824 | 120.13343 | 33942 ft | 476 kts | 230° |
| 2026-05-06 06:54 | 23.99201 | 120.08161 | 33933 ft | 476 kts | 230° |
| 2026-05-06 06:54 | 23.94605 | 120.02989 | 33929 ft | 476 kts | 230° |
| 2026-05-06 06:55 | 23.89955 | 119.97780 | 33933 ft | 476 kts | 230° |
| 2026-05-06 06:55 | 23.85795 | 119.93079 | 33939 ft | 476 kts | 230° |
| 2026-05-06 06:56 | 23.81161 | 119.87852 | 33941 ft | 476 kts | 230° |
| 2026-05-06 06:56 | 23.76566 | 119.82698 | 33945 ft | 476 kts | 230° |
| 2026-05-06 06:57 | 23.71968 | 119.77516 | 33944 ft | 476 kts | 230° |
| 2026-05-06 06:57 | 23.67348 | 119.72339 | 33954 ft | 475 kts | 229° |
| 2026-05-06 06:58 | 23.62714 | 119.67183 | 33959 ft | 475 kts | 230° |
| 2026-05-06 06:58 | 23.58672 | 119.61578 | 33960 ft | 468 kts | 242° |
| 2026-05-06 06:59 | 23.55182 | 119.55593 | 33960 ft | 469 kts | 240° |
| 2026-05-06 06:59 | 23.51550 | 119.49664 | 33943 ft | 469 kts | 240° |
| 2026-05-06 07:00 | 23.48612 | 119.44704 | 33949 ft | 468 kts | 241° |
| 2026-05-06 07:00 | 23.45134 | 119.38698 | 33949 ft | 468 kts | 241° |
| 2026-05-06 07:01 | 23.41641 | 119.32738 | 33948 ft | 468 kts | 241° |
| 2026-05-06 07:01 | 23.38175 | 119.26743 | 33941 ft | 467 kts | 242° |
| 2026-05-06 07:02 | 23.34709 | 119.20788 | 33938 ft | 468 kts | 241° |
| 2026-05-06 07:02 | 23.31260 | 119.14840 | 33939 ft | 468 kts | 242° |
| 2026-05-06 07:03 | 23.27770 | 119.08875 | 33939 ft | 467 kts | 242° |
| 2026-05-06 07:03 | 23.24274 | 119.02929 | 33939 ft | 467 kts | 242° |
| 2026-05-06 07:04 | 23.20795 | 118.96978 | 33939 ft | 466 kts | 242° |
| 2026-05-06 07:04 | 23.17310 | 118.91011 | 33938 ft | 467 kts | 242° |
| 2026-05-06 07:05 | 23.13829 | 118.85048 | 33937 ft | 467 kts | 242° |
| 2026-05-06 07:05 | 23.10339 | 118.79088 | 33940 ft | 467 kts | 242° |
| 2026-05-06 07:06 | 23.06864 | 118.73187 | 33939 ft | 468 kts | 242° |
| 2026-05-06 07:06 | 23.03344 | 118.67235 | 33938 ft | 469 kts | 242° |
| 2026-05-06 07:07 | 22.99827 | 118.61242 | 33936 ft | 469 kts | 242° |
| 2026-05-06 07:07 | 22.96320 | 118.55259 | 33938 ft | 469 kts | 242° |
| 2026-05-06 07:08 | 22.92766 | 118.49307 | 33937 ft | 470 kts | 241° |
| 2026-05-06 07:08 | 22.89202 | 118.43377 | 33940 ft | 470 kts | 241° |
| 2026-05-06 07:09 | 22.85669 | 118.37454 | 33939 ft | 471 kts | 241° |
| 2026-05-06 07:09 | 22.82066 | 118.31524 | 33939 ft | 471 kts | 240° |
| 2026-05-06 07:10 | 22.78525 | 118.25556 | 33937 ft | 471 kts | 241° |
| 2026-05-06 07:10 | 22.74994 | 118.19591 | 33937 ft | 471 kts | 241° |
| 2026-05-06 07:11 | 22.71407 | 118.13627 | 33936 ft | 471 kts | 240° |
| 2026-05-06 07:11 | 22.67821 | 118.07667 | 33937 ft | 471 kts | 241° |
| 2026-05-06 07:12 | 22.64284 | 118.01767 | 33941 ft | 470 kts | 241° |
| 2026-05-06 07:12 | 22.60797 | 117.95893 | 33937 ft | 470 kts | 240° |
| 2026-05-06 07:13 | 22.57249 | 117.89954 | 33934 ft | 470 kts | 240° |
| 2026-05-06 07:13 | 22.53708 | 117.84015 | 33937 ft | 470 kts | 240° |
| 2026-05-06 07:14 | 22.50154 | 117.78066 | 33936 ft | 470 kts | 241° |
| 2026-05-06 07:14 | 22.46598 | 117.72115 | 33937 ft | 470 kts | 241° |
| 2026-05-06 07:15 | 22.43087 | 117.66159 | 33934 ft | 470 kts | 241° |
| 2026-05-06 07:15 | 22.39574 | 117.60241 | 33936 ft | 470 kts | 240° |
| 2026-05-06 07:16 | 22.36094 | 117.54360 | 33931 ft | 469 kts | 244° |
| 2026-05-06 07:16 | 22.34798 | 117.51158 | 33884 ft | 461 kts | 259° |
| 2026-05-06 07:16 | 22.34390 | 117.47753 | 33903 ft | 455 kts | 270° |
| 2026-05-06 07:17 | 22.33979 | 117.40907 | 33950 ft | 460 kts | 265° |
| 2026-05-06 07:17 | 22.33327 | 117.34025 | 33939 ft | 460 kts | 268° |
| 2026-05-06 07:18 | 22.33072 | 117.27137 | 33941 ft | 459 kts | 270° |
| 2026-05-06 07:18 | 22.32932 | 117.20249 | 33941 ft | 459 kts | 270° |
| 2026-05-06 07:19 | 22.32790 | 117.13348 | 33939 ft | 459 kts | 269° |
| 2026-05-06 07:19 | 22.32621 | 117.06446 | 33937 ft | 459 kts | 270° |
| 2026-05-06 07:20 | 22.32494 | 116.99552 | 33939 ft | 459 kts | 270° |
| 2026-05-06 07:20 | 22.32347 | 116.92650 | 33940 ft | 459 kts | 270° |
| 2026-05-06 07:21 | 22.32211 | 116.85828 | 33942 ft | 459 kts | 269° |
| 2026-05-06 07:21 | 22.32064 | 116.78896 | 33939 ft | 460 kts | 270° |
| 2026-05-06 07:22 | 22.31936 | 116.71972 | 33944 ft | 461 kts | 269° |
| 2026-05-06 07:22 | 22.31779 | 116.65045 | 33946 ft | 462 kts | 269° |
| 2026-05-06 07:23 | 22.31631 | 116.58106 | 33941 ft | 461 kts | 269° |
| 2026-05-06 07:23 | 22.31475 | 116.51229 | 33944 ft | 461 kts | 269° |
| 2026-05-06 07:24 | 22.31309 | 116.44316 | 33942 ft | 461 kts | 269° |
| 2026-05-06 07:24 | 22.31171 | 116.37442 | 33944 ft | 461 kts | 269° |
| 2026-05-06 07:25 | 22.31015 | 116.30521 | 33949 ft | 461 kts | 269° |
| 2026-05-06 07:25 | 22.30830 | 116.23605 | 33946 ft | 461 kts | 269° |
| 2026-05-06 07:26 | 22.30650 | 116.16694 | 33943 ft | 461 kts | 269° |
| 2026-05-06 07:26 | 22.30481 | 116.09770 | 33948 ft | 460 kts | 269° |
| 2026-05-06 07:27 | 22.30303 | 116.02872 | 33947 ft | 460 kts | 269° |
| 2026-05-06 07:27 | 22.30140 | 115.96010 | 33948 ft | 460 kts | 269° |
| 2026-05-06 07:28 | 22.29979 | 115.89086 | 33947 ft | 461 kts | 269° |
| 2026-05-06 07:28 | 22.29647 | 115.78774 | 33947 ft | 461 kts | 268° |
| 2026-05-06 07:29 | 22.29322 | 115.71834 | 33944 ft | 461 kts | 268° |
| 2026-05-06 07:29 | 22.29044 | 115.64929 | 33941 ft | 461 kts | 268° |
| 2026-05-06 07:30 | 22.28793 | 115.58012 | 33946 ft | 461 kts | 268° |
| 2026-05-06 07:30 | 22.28541 | 115.51094 | 33945 ft | 461 kts | 268° |
| 2026-05-06 07:31 | 22.28259 | 115.44165 | 33944 ft | 461 kts | 268° |
| 2026-05-06 07:31 | 22.28000 | 115.37256 | 33945 ft | 461 kts | 268° |
| 2026-05-06 07:32 | 22.27727 | 115.30377 | 33949 ft | 463 kts | 268° |
| 2026-05-06 07:32 | 22.27459 | 115.23434 | 33954 ft | 464 kts | 268° |
| 2026-05-06 07:33 | 22.27169 | 115.16459 | 33942 ft | 464 kts | 266° |
| 2026-05-06 07:33 | 22.26164 | 115.09567 | 33947 ft | 465 kts | 259° |
| 2026-05-06 07:34 | 22.24894 | 115.02750 | 33946 ft | 465 kts | 260° |
| 2026-05-06 07:34 | 22.23729 | 114.95874 | 33943 ft | 466 kts | 262° |
| 2026-05-06 07:35 | 22.23274 | 114.88935 | 33952 ft | 465 kts | 270° |
| 2026-05-06 07:35 | 22.23214 | 114.81952 | 33856 ft | 467 kts | 269° |
| 2026-05-06 07:36 | 22.23122 | 114.78454 | 33351 ft | 461 kts | 269° |
| 2026-05-06 07:36 | 22.23037 | 114.75008 | 32773 ft | 454 kts | 269° |
| 2026-05-06 07:36 | 22.22987 | 114.71619 | 32246 ft | 452 kts | 270° |
| 2026-05-06 07:36 | 22.22960 | 114.68211 | 31717 ft | 453 kts | 270° |
| 2026-05-06 07:37 | 22.22932 | 114.64816 | 31218 ft | 454 kts | 270° |
| 2026-05-06 07:37 | 22.22898 | 114.61398 | 30700 ft | 455 kts | 269° |
| 2026-05-06 07:37 | 22.22890 | 114.57978 | 30205 ft | 457 kts | 271° |
| 2026-05-06 07:37 | 22.22926 | 114.54532 | 29652 ft | 459 kts | 270° |
| 2026-05-06 07:38 | 22.22881 | 114.51103 | 29085 ft | 460 kts | 268° |
| 2026-05-06 07:38 | 22.22768 | 114.47674 | 28532 ft | 462 kts | 268° |
| 2026-05-06 07:38 | 22.22665 | 114.44221 | 27954 ft | 464 kts | 269° |
| 2026-05-06 07:38 | 22.22604 | 114.40716 | 27412 ft | 465 kts | 269° |
| 2026-05-06 07:39 | 22.22555 | 114.37235 | 26870 ft | 467 kts | 269° |
| 2026-05-06 07:39 | 22.22508 | 114.33713 | 26335 ft | 468 kts | 269° |
| 2026-05-06 07:39 | 22.22458 | 114.30179 | 25739 ft | 471 kts | 269° |
| 2026-05-06 07:39 | 22.22394 | 114.26640 | 24859 ft | 472 kts | 269° |
| 2026-05-06 07:40 | 22.22339 | 114.23120 | 23891 ft | 464 kts | 269° |
| 2026-05-06 07:40 | 22.22303 | 114.19667 | 22736 ft | 455 kts | 269° |
| 2026-05-06 07:40 | 22.22303 | 114.16283 | 21582 ft | 446 kts | 271° |
| 2026-05-06 07:40 | 22.22408 | 114.12976 | 20484 ft | 437 kts | 270° |
| 2026-05-06 07:41 | 22.22368 | 114.09771 | 19422 ft | 429 kts | 266° |
| 2026-05-06 07:41 | 22.22137 | 114.06550 | 18382 ft | 421 kts | 264° |
| 2026-05-06 07:41 | 22.21722 | 114.03493 | 17242 ft | 412 kts | 259° |
| 2026-05-06 07:41 | 22.21138 | 114.00499 | 16126 ft | 405 kts | 253° |
| 2026-05-06 07:42 | 22.20096 | 113.97671 | 15008 ft | 399 kts | 243° |
| 2026-05-06 07:42 | 22.18593 | 113.95178 | 13966 ft | 395 kts | 232° |
| 2026-05-06 07:42 | 22.16699 | 113.93104 | 12840 ft | 391 kts | 221° |
| 2026-05-06 07:42 | 22.14374 | 113.91603 | 11689 ft | 390 kts | 202° |
| 2026-05-06 07:43 | 22.11768 | 113.90882 | 10610 ft | 386 kts | 190° |
| 2026-05-06 07:43 | 22.09102 | 113.90756 | 9540 ft | 382 kts | 178° |
| 2026-05-06 07:43 | 22.06502 | 113.91250 | 8390 ft | 379 kts | 165° |
| 2026-05-06 07:43 | 22.04109 | 113.92357 | 7565 ft | 370 kts | 151° |
| 2026-05-06 07:44 | 22.02139 | 113.94013 | 7376 ft | 344 kts | 135° |
| 2026-05-06 07:44 | 22.00833 | 113.96017 | 7550 ft | 312 kts | 116° |
| 2026-05-06 07:44 | 22.00268 | 113.98184 | 7758 ft | 297 kts | 98° |
| 2026-05-06 07:44 | 22.00161 | 114.00407 | 7972 ft | 299 kts | 91° |
| 2026-05-06 07:45 | 22.00221 | 114.02659 | 8064 ft | 301 kts | 88° |
| 2026-05-06 07:45 | 22.00344 | 114.04907 | 8049 ft | 301 kts | 87° |
| 2026-05-06 07:45 | 22.00611 | 114.07106 | 8019 ft | 301 kts | 73° |
| 2026-05-06 07:45 | 22.01560 | 114.09113 | 7992 ft | 299 kts | 50° |
| 2026-05-06 07:46 | 22.03115 | 114.10560 | 8007 ft | 297 kts | 27° |
| 2026-05-06 07:46 | 22.05049 | 114.11291 | 8005 ft | 294 kts | 5° |
| 2026-05-06 07:46 | 22.07054 | 114.11108 | 7975 ft | 287 kts | 337° |
| 2026-05-06 07:46 | 22.08706 | 114.09972 | 7986 ft | 281 kts | 312° |
| 2026-05-06 07:47 | 22.09932 | 114.08347 | 8040 ft | 281 kts | 302° |
| 2026-05-06 07:47 | 22.11014 | 114.06583 | 8046 ft | 283 kts | 307° |
| 2026-05-06 07:47 | 22.12512 | 114.05199 | 8003 ft | 287 kts | 330° |
| 2026-05-06 07:47 | 22.14394 | 114.04504 | 8022 ft | 290 kts | 347° |
| 2026-05-06 07:48 | 22.15700 | 114.04189 | 8024 ft | 291 kts | 337° |
| 2026-05-06 07:48 | 22.17360 | 114.03041 | 7969 ft | 281 kts | 309° |
| 2026-05-06 07:48 | 22.18451 | 114.01310 | 8040 ft | 280 kts | 297° |
| 2026-05-06 07:48 | 22.19615 | 113.98909 | 8779 ft | 260 kts | 294° |
| 2026-05-06 07:49 | 22.20386 | 113.97262 | 9331 ft | 230 kts | 294° |
| 2026-05-06 07:49 | 22.20867 | 113.96229 | 9337 ft | 227 kts | 292° |
| 2026-05-06 07:49 | 22.21517 | 113.94051 | 8712 ft | 237 kts | 275° |
| 2026-05-06 07:49 | 22.21595 | 113.92853 | 8263 ft | 244 kts | 269° |
| 2026-05-06 07:50 | 22.21558 | 113.90974 | 7575 ft | 255 kts | 266° |
| 2026-05-06 07:50 | 22.21598 | 113.89036 | 6867 ft | 265 kts | 281° |
| 2026-05-06 07:50 | 22.22356 | 113.87197 | 6184 ft | 276 kts | 306° |
| 2026-05-06 07:50 | 22.23792 | 113.85857 | 5836 ft | 273 kts | 331° |
| 2026-05-06 07:51 | 22.25558 | 113.85355 | 5853 ft | 255 kts | 359° |
| 2026-05-06 07:51 | 22.27205 | 113.85771 | 5940 ft | 236 kts | 26° |
| 2026-05-06 07:51 | 22.28543 | 113.86741 | 6063 ft | 232 kts | 38° |
| 2026-05-06 07:51 | 22.29746 | 113.87845 | 6251 ft | 225 kts | 40° |
| 2026-05-06 07:52 | 22.30807 | 113.88882 | 6282 ft | 225 kts | 41° |
| 2026-05-06 07:52 | 22.31636 | 113.89712 | 6110 ft | 225 kts | 45° |
| 2026-05-06 07:52 | 22.32402 | 113.91166 | 5596 ft | 224 kts | 78° |
| 2026-05-06 07:53 | 22.32342 | 113.92764 | 5158 ft | 207 kts | 102° |
| 2026-05-06 07:53 | 22.32157 | 113.94282 | 4808 ft | 208 kts | 95° |
| 2026-05-06 07:53 | 22.32166 | 113.95865 | 4452 ft | 208 kts | 89° |
| 2026-05-06 07:53 | 22.32244 | 113.97380 | 4143 ft | 199 kts | 88° |
| 2026-05-06 07:54 | 22.32325 | 113.98838 | 3815 ft | 189 kts | 88° |
| 2026-05-06 07:54 | 22.32397 | 114.00210 | 3544 ft | 175 kts | 88° |
| 2026-05-06 07:54 | 22.32458 | 114.01498 | 3344 ft | 174 kts | 88° |
| 2026-05-06 07:54 | 22.32517 | 114.02820 | 3137 ft | 174 kts | 89° |
| 2026-05-06 07:55 | 22.32580 | 114.04108 | 2881 ft | 172 kts | 89° |
| 2026-05-06 07:55 | 22.32642 | 114.05396 | 2648 ft | 170 kts | 89° |
| 2026-05-06 07:55 | 22.32699 | 114.06647 | 2420 ft | 168 kts | 88° |
| 2026-05-06 07:55 | 22.32758 | 114.07897 | 2181 ft | 165 kts | 88° |
| 2026-05-06 07:56 | 22.32815 | 114.09123 | 1975 ft | 162 kts | 88° |
| 2026-05-06 07:56 | 22.32870 | 114.10332 | 1714 ft | 159 kts | 87° |
| 2026-05-06 07:56 | 22.32935 | 114.11524 | 1502 ft | 159 kts | 86° |
| 2026-05-06 07:56 | 22.33055 | 114.12708 | 1243 ft | 157 kts | 82° |
| 2026-05-06 07:57 | 22.33211 | 114.13849 | 1113 ft | 157 kts | 82° |
| 2026-05-06 07:57 | 22.33379 | 114.15021 | 920 ft | 158 kts | 82° |
| 2026-05-06 07:57 | 22.33430 | 114.16203 | 681 ft | 159 kts | 90° |
| 2026-05-06 07:57 | 22.33353 | 114.17411 | 609 ft | 161 kts | 96° |
| 2026-05-06 07:58 | 22.33005 | 114.18580 | 321 ft | 165 kts | 113° |
| 2026-05-06 07:58 | 22.32320 | 114.19545 | 101 ft | 160 kts | 132° |
| 2026-05-06 07:58 | 22.31596 | 114.20326 | 37 ft | 128 kts | 132° |
| 2026-05-06 07:58 | 22.31070 | 114.20886 | 36 ft | 89 kts | 136° |
| 2026-05-06 07:59 | 22.30700 | 114.21295 | 36 ft | 51 kts | 133° |
| 2026-05-06 07:59 | 22.30589 | 114.21421 | 35 ft | 18 kts | 130° |
| 2026-05-06 07:59 | 22.30496 | 114.21526 | 37 ft | 21 kts | 134° |
| 2026-05-06 07:59 | 22.30418 | 114.21621 | 35 ft | 13 kts | 108° |
| 2026-05-06 08:00 | 22.30471 | 114.21694 | 35 ft | 14 kts | 16° |
| 2026-05-06 08:00 | 22.30551 | 114.21636 | 37 ft | 16 kts | 316° |
| 2026-05-06 08:00 | 22.30642 | 114.21541 | 37 ft | 21 kts | 316° |
| 2026-05-06 08:00 | 22.30748 | 114.21419 | 37 ft | 24 kts | 313° |
| 2026-05-06 08:01 | 22.30873 | 114.21277 | 37 ft | 27 kts | 313° |
| 2026-05-06 08:01 | 22.30982 | 114.21135 | 37 ft | 25 kts | 317° |
| 2026-05-06 08:01 | 22.31112 | 114.20997 | 37 ft | 27 kts | 314° |
| 2026-05-06 08:01 | 22.31253 | 114.20842 | 37 ft | 31 kts | 312° |
| 2026-05-06 08:02 | 22.31401 | 114.20671 | 38 ft | 31 kts | 314° |
| 2026-05-06 08:02 | 22.31552 | 114.20503 | 36 ft | 31 kts | 314° |
| 2026-05-06 08:02 | 22.31713 | 114.20325 | 36 ft | 35 kts | 315° |
| 2026-05-06 08:02 | 22.31885 | 114.20128 | 37 ft | 35 kts | 314° |
| 2026-05-06 08:03 | 22.32032 | 114.19964 | 38 ft | 25 kts | 311° |
| 2026-05-06 08:03 | 22.32161 | 114.19822 | 38 ft | 24 kts | 314° |
| 2026-05-06 08:03 | 22.32282 | 114.19688 | 38 ft | 24 kts | 314° |
| 2026-05-06 08:03 | 22.32392 | 114.19571 | 36 ft | 20 kts | 321° |
| 2026-05-06 08:04 | 22.32486 | 114.19484 | 36 ft | 15 kts | 320° |
| 2026-05-06 08:04 | 22.32550 | 114.19421 | 37 ft | 7 kts | 324° |
| 2026-05-06 08:04 | 22.32589 | 114.19409 | 38 ft | 6 kts | 340° |
| 2026-05-06 08:04 | 22.32618 | 114.19387 | 37 ft | 3 kts | 319° |
| 2026-05-06 08:05 | 22.32628 | 114.19376 | 38 ft | 2 kts | 316° |
| 2026-05-06 08:05 | 22.32636 | 114.19368 | 37 ft | 0 kts | 313° |
| 2026-05-06 08:05 | 22.32643 | 114.19360 | 38 ft | 3 kts | 314° |
| 2026-05-06 08:05 | 22.32649 | 114.19353 | 38 ft | 2 kts | 314° |
| 2026-05-06 08:06 | 22.32652 | 114.19350 | 38 ft | 0 kts | 314° |
| 2026-05-06 08:06 | 22.32656 | 114.19346 | 38 ft | 0 kts | 314° |
| 2026-05-06 08:07 | 22.32657 | 114.19345 | 36 ft | 0 kts | 314° |
| 2026-05-06 08:07 | 22.32657 | 114.19344 | 36 ft | 0 kts | 314° |